Acamar — FICN — position and weather

sailwx.info

Track history (hours):
 
Tides and Currents Weather Stations Pressure Air Temp Water Temp Dewpoint Dewpoint Depression Visibility Wind Speed Wind Dir Waves Ship Positions

Acamar

Last reported at 2017-Dec-11 07:30 UTC. Time now 2017-Dec-11 07:54 UTC.
Position N 43°09' E 004°33'.

Length 184 m; draft 6.9 m.

Type: Tanker. MMSI: 226019000.

Date/timePositionNaut miles runAvg speedWind from/ knotsBaromVisibWave heightAir tempDewpointWater temp
2017-Dec-11 07:30N 43°09' E 004°33'1 1.7
2017-Dec-11 07:00N 43°10' E 004°33'1 1.7
2017-Dec-11 06:30N 43°10' E 004°32'1 1.1
2017-Dec-11 06:00N 43°11' E 004°32'2 3.3
2017-Dec-11 05:30N 43°11' E 004°34'2 4.2
2017-Dec-11 05:00N 43°10' E 004°37'0 0.9
2017-Dec-11 04:30N 43°10' E 004°36'0 0.4
2017-Dec-11 04:00N 43°10' E 004°36'0 0.3
2017-Dec-11 03:29N 43°10' E 004°36'0 0.2
2017-Dec-11 03:00N 43°10' E 004°36'0 0.4
2017-Dec-11 02:29N 43°10' E 004°36'0 0.1
2017-Dec-11 02:00N 43°10' E 004°36'1 0.7
2017-Dec-11 01:12N 43°09' E 004°36'0 0.4
2017-Dec-11 00:54N 43°09' E 004°35'0 0.1
2017-Dec-11 00:27N 43°09' E 004°35'0 0.0
2017-Dec-10 23:57N 43°09' E 004°35'0 0.0
2017-Dec-10 23:24N 43°09' E 004°35'0 0.0
2017-Dec-10 22:00N 43°09' E 004°35'0 0.0
2017-Dec-10 21:18N 43°09' E 004°35'0 0.0
2017-Dec-10 20:48N 43°09' E 004°35'0 0.0
2017-Dec-10 20:27N 43°09' E 004°35'0 0.0
2017-Dec-10 19:42N 43°09' E 004°35'0 0.0
2017-Dec-10 19:12N 43°09' E 004°35'0 0.1
2017-Dec-10 19:00N 43°09' E 004°35'0 0.0
2017-Dec-10 18:12N 43°09' E 004°35'0 0.2
2017-Dec-10 18:00N 43°09' E 004°35'0 0.0
2017-Dec-10 17:27N 43°09' E 004°35'0 0.0
2017-Dec-10 17:00N 43°09' E 004°35'0 0.0
2017-Dec-10 16:30N 43°09' E 004°35'0 0.0
2017-Dec-10 11:51N 43°09' E 004°36'0 0.9
2017-Dec-10 11:30N 43°09' E 004°36'4 8.9
2017-Dec-10 11:00N 43°10' E 004°42'5 9.4
2017-Dec-10 10:30N 43°11' E 004°48'5 9.7
2017-Dec-10 10:00N 43°11' E 004°55'4 8.2
2017-Dec-10 09:29N 43°13' E 004°60'5 9.9
2017-Dec-10 09:00N 43°18' E 004°59'4 8.8
2017-Dec-10 08:30N 43°22' E 004°57'4 7.5
2017-Dec-10 08:00N 43°24' E 004°53'0 0.5
2017-Dec-10 07:28N 43°25' E 004°53'0 0.0
2017-Dec-09 04:02N 43°25' E 004°53'0 0.3
2017-Dec-09 04:00N 43°25' E 004°53'2 3.4
2017-Dec-09 03:30N 43°24' E 004°55'4 8.6
2017-Dec-09 03:00N 43°20' E 004°59'3 5.2
2017-Dec-09 02:30N 43°18' E 004°60'5 9.5
2017-Dec-09 02:00N 43°14' E 005°02'713.1
2017-Dec-09 01:30N 43°07' E 005°03'  
Track history (hours):
 
Tides and Currents Weather Stations Pressure Air Temp Water Temp Dewpoint Dewpoint Depression Visibility Wind Speed Wind Dir Waves Ship Positions

Acamar

Last reported at 2017-Dec-11 07:30 UTC. Time now 2017-Dec-11 07:54 UTC.
Position N 43°09' E 004°33'.

Length 184 m; draft 6.9 m.

Type: Tanker. MMSI: 226019000.

Date/timePositionNaut miles runAvg speedWind from/ knotsBaromVisibWave heightAir tempDewpointWater temp
2017-Dec-11 07:30N 43°09' E 004°33'1 1.7
2017-Dec-11 07:00N 43°10' E 004°33'1 1.7
2017-Dec-11 06:30N 43°10' E 004°32'1 1.1
2017-Dec-11 06:00N 43°11' E 004°32'2 3.3
2017-Dec-11 05:30N 43°11' E 004°34'2 4.2
2017-Dec-11 05:00N 43°10' E 004°37'0 0.9
2017-Dec-11 04:30N 43°10' E 004°36'0 0.4
2017-Dec-11 04:00N 43°10' E 004°36'0 0.3
2017-Dec-11 03:29N 43°10' E 004°36'0 0.2
2017-Dec-11 03:00N 43°10' E 004°36'0 0.4
2017-Dec-11 02:29N 43°10' E 004°36'0 0.1
2017-Dec-11 02:00N 43°10' E 004°36'1 0.7
2017-Dec-11 01:12N 43°09' E 004°36'0 0.4
2017-Dec-11 00:54N 43°09' E 004°35'0 0.1
2017-Dec-11 00:27N 43°09' E 004°35'0 0.0
2017-Dec-10 23:57N 43°09' E 004°35'0 0.0
2017-Dec-10 23:24N 43°09' E 004°35'0 0.0
2017-Dec-10 22:00N 43°09' E 004°35'0 0.0
2017-Dec-10 21:18N 43°09' E 004°35'0 0.0
2017-Dec-10 20:48N 43°09' E 004°35'0 0.0
2017-Dec-10 20:27N 43°09' E 004°35'0 0.0
2017-Dec-10 19:42N 43°09' E 004°35'0 0.0
2017-Dec-10 19:12N 43°09' E 004°35'0 0.1
2017-Dec-10 19:00N 43°09' E 004°35'0 0.0
2017-Dec-10 18:12N 43°09' E 004°35'0 0.2
2017-Dec-10 18:00N 43°09' E 004°35'0 0.0
2017-Dec-10 17:27N 43°09' E 004°35'0 0.0
2017-Dec-10 17:00N 43°09' E 004°35'0 0.0
2017-Dec-10 16:30N 43°09' E 004°35'0 0.0
2017-Dec-10 11:51N 43°09' E 004°36'0 0.9
2017-Dec-10 11:30N 43°09' E 004°36'4 8.9
2017-Dec-10 11:00N 43°10' E 004°42'5 9.4
2017-Dec-10 10:30N 43°11' E 004°48'5 9.7
2017-Dec-10 10:00N 43°11' E 004°55'4 8.2
2017-Dec-10 09:29N 43°13' E 004°60'5 9.9
2017-Dec-10 09:00N 43°18' E 004°59'4 8.8
2017-Dec-10 08:30N 43°22' E 004°57'4 7.5
2017-Dec-10 08:00N 43°24' E 004°53'0 0.5
2017-Dec-10 07:28N 43°25' E 004°53'0 0.0
2017-Dec-09 04:02N 43°25' E 004°53'0 0.3
2017-Dec-09 04:00N 43°25' E 004°53'2 3.4
2017-Dec-09 03:30N 43°24' E 004°55'4 8.6
2017-Dec-09 03:00N 43°20' E 004°59'3 5.2
2017-Dec-09 02:30N 43°18' E 004°60'5 9.5
2017-Dec-09 02:00N 43°14' E 005°02'713.1
2017-Dec-09 01:30N 43°07' E 005°03'  

Dump ship's entire track history